Time;durP1;ratioP1;P1;durP2;ratioP2;P2;SDS_P1;SDS_P2;PMS_P1;PMS_P2;Temp;Humidity;BMP_temperature;BMP_pressure;BME280_temperature;BME280_humidity;BME280_pressure;Samples;Min_cycle;Max_cycle;Signal;HPM_P1;HPM_P2
2023/12/05 00:00:28;;;;;;;23.85;18.85;;;4.40;99.90;;;;;;4977587;28;20368;-71
2023/12/05 00:02:53;;;;;;;22.83;18.52;;;4.40;99.90;;;;;;4980155;28;20502;-71
2023/12/05 00:05:19;;;;;;;22.05;17.92;;;4.50;99.90;;;;;;4979646;28;20078;-71
2023/12/05 00:07:44;;;;;;;24.33;18.40;;;4.50;99.90;;;;;;4979930;28;20058;-71
2023/12/05 00:10:10;;;;;;;24.08;18.83;;;4.40;99.90;;;;;;4978982;28;20105;-72
2023/12/05 00:12:36;;;;;;;25.23;19.63;;;4.50;99.90;;;;;;4978274;28;20069;-73
2023/12/05 00:15:01;;;;;;;21.70;17.35;;;4.50;99.90;;;;;;4977130;28;20483;-71
2023/12/05 00:17:27;;;;;;;24.73;19.75;;;4.50;99.90;;;;;;4978317;28;20502;-71
2023/12/05 00:19:53;;;;;;;23.98;19.95;;;4.40;99.90;;;;;;4977965;28;20165;-72
2023/12/05 00:22:18;;;;;;;21.85;18.02;;;4.40;99.90;;;;;;4977864;28;20092;-71
2023/12/05 00:24:44;;;;;;;24.45;19.25;;;4.40;99.90;;;;;;4960864;28;20475;-72
2023/12/05 00:27:10;;;;;;;23.17;18.67;;;4.40;99.90;;;;;;4977734;28;20034;-73
2023/12/05 00:29:37;;;;;;;23.85;18.67;;;4.40;99.90;;;;;;4978551;28;20039;-72
2023/12/05 00:32:03;;;;;;;23.70;18.73;;;4.40;99.90;;;;;;4975756;28;20097;-72
2023/12/05 00:34:28;;;;;;;22.73;18.75;;;4.40;99.90;;;;;;4978347;28;20382;-71
2023/12/05 00:36:54;;;;;;;22.85;18.92;;;4.50;99.90;;;;;;4978754;28;20069;-73
2023/12/05 00:39:20;;;;;;;22.42;18.77;;;4.50;99.90;;;;;;4979017;28;20114;-73
2023/12/05 00:41:46;;;;;;;20.52;17.63;;;4.40;99.90;;;;;;4977736;28;20085;-72
2023/12/05 00:44:12;;;;;;;24.60;20.02;;;4.40;99.90;;;;;;4979561;28;20047;-71
2023/12/05 00:46:38;;;;;;;24.52;19.15;;;4.40;99.90;;;;;;4978689;28;20372;-72
2023/12/05 00:49:04;;;;;;;22.17;17.88;;;4.40;99.90;;;;;;4978565;28;20030;-71
2023/12/05 00:51:30;;;;;;;24.52;18.70;;;4.40;99.90;;;;;;4979214;28;20050;-71
2023/12/05 00:53:56;;;;;;;23.58;19.10;;;4.50;99.90;;;;;;4976577;28;20117;-72
2023/12/05 00:56:21;;;;;;;25.13;20.33;;;4.40;99.90;;;;;;4978476;28;20027;-70
2023/12/05 00:58:47;;;;;;;23.75;19.17;;;4.50;99.90;;;;;;4977198;28;20059;-72
2023/12/05 01:01:13;;;;;;;26.38;20.65;;;4.40;99.90;;;;;;4977752;28;20058;-72
2023/12/05 01:03:39;;;;;;;22.65;18.90;;;4.40;99.90;;;;;;4976765;28;20035;-71
2023/12/05 01:06:05;;;;;;;25.85;20.45;;;4.40;99.90;;;;;;4977812;28;20042;-71
2023/12/05 01:08:30;;;;;;;23.95;19.58;;;4.40;99.90;;;;;;4977706;28;20038;-71
2023/12/05 01:10:56;;;;;;;25.15;19.73;;;4.40;99.90;;;;;;4977953;28;20471;-71
2023/12/05 01:13:24;;;;;;;24.15;19.58;;;4.40;99.90;;;;;;4976850;28;20054;-72
2023/12/05 01:15:50;;;;;;;25.70;19.45;;;4.40;99.90;;;;;;4974617;28;20442;-72
2023/12/05 01:18:15;;;;;;;25.25;19.55;;;4.40;99.90;;;;;;4977255;28;20027;-73
2023/12/05 01:20:41;;;;;;;24.92;19.27;;;4.40;99.90;;;;;;4975705;28;20023;-70
2023/12/05 01:23:07;;;;;;;25.58;18.92;;;4.40;99.90;;;;;;4975930;28;20399;-71
2023/12/05 01:25:32;;;;;;;22.90;17.80;;;4.30;99.90;;;;;;4974997;28;20038;-71
2023/12/05 01:27:58;;;;;;;21.60;18.05;;;4.30;99.90;;;;;;4976426;28;20447;-72
2023/12/05 01:30:24;;;;;;;25.23;20.17;;;4.30;99.90;;;;;;4975282;28;20045;-72
2023/12/05 01:32:50;;;;;;;24.30;18.73;;;4.30;99.90;;;;;;4976358;28;20035;-71
2023/12/05 01:35:16;;;;;;;23.67;18.67;;;4.30;99.90;;;;;;4976794;28;20041;-72
2023/12/05 01:37:42;;;;;;;23.85;19.10;;;4.30;99.90;;;;;;4974860;28;20090;-71
2023/12/05 01:40:09;;;;;;;27.73;21.13;;;4.40;99.90;;;;;;4976381;28;20093;-72
2023/12/05 01:42:38;;;;;;;27.17;20.73;;;4.40;99.90;;;;;;4976575;28;20039;-71
2023/12/05 01:45:08;;;;;;;27.05;20.20;;;4.40;99.90;;;;;;4975222;28;20073;-71
2023/12/05 01:47:35;;;;;;;26.08;20.83;;;4.40;99.90;;;;;;4975712;28;20027;-70
2023/12/05 01:50:03;;;;;;;24.80;18.30;;;4.30;99.90;;;;;;4975476;28;20034;-70
2023/12/05 01:52:30;;;;;;;26.95;21.13;;;4.40;99.90;;;;;;4975004;28;20038;-71
2023/12/05 01:54:56;;;;;;;27.05;20.77;;;4.40;99.90;;;;;;4974790;28;20042;-71
2023/12/05 01:57:24;;;;;;;26.98;20.35;;;4.30;99.90;;;;;;4976300;28;20031;-73
2023/12/05 01:59:52;;;;;;;26.83;20.10;;;4.30;99.90;;;;;;4975236;28;20054;-71
2023/12/05 02:02:18;;;;;;;27.17;21.25;;;4.30;99.90;;;;;;4969946;28;20037;-71
2023/12/05 02:04:44;;;;;;;27.52;21.10;;;4.30;99.90;;;;;;4973779;28;20400;-72
2023/12/05 02:07:12;;;;;;;27.65;21.42;;;4.30;99.90;;;;;;4973722;28;20038;-73
2023/12/05 02:09:38;;;;;;;27.50;22.05;;;4.30;99.90;;;;;;4955763;28;20511;-72
2023/12/05 02:12:04;;;;;;;28.40;21.48;;;4.30;99.90;;;;;;4973058;28;20105;-72
2023/12/05 02:14:30;;;;;;;27.20;20.20;;;4.30;99.90;;;;;;4972188;28;20031;-71
2023/12/05 02:17:09;;;;;;;27.60;21.00;;;4.30;99.90;;;;;;4973242;28;20371;-72
2023/12/05 02:20:23;;;;;;;28.65;22.02;;;4.30;99.90;;;;;;4972231;28;20114;-73
2023/12/05 02:23:09;;;;;;;26.17;20.27;;;4.30;99.90;;;;;;4960628;28;20475;-72
2023/12/05 02:25:56;;;;;;;28.52;21.83;;;4.30;99.90;;;;;;4972490;28;20471;-72
2023/12/05 02:28:23;;;;;;;28.17;21.77;;;4.40;99.90;;;;;;4971995;28;20094;-72
2023/12/05 02:30:49;;;;;;;26.83;20.45;;;4.40;99.90;;;;;;4972887;28;20026;-73
2023/12/05 02:33:15;;;;;;;32.15;23.75;;;4.40;99.90;;;;;;4973286;28;20474;-72
2023/12/05 02:35:41;;;;;;;28.65;23.10;;;4.40;99.90;;;;;;4973205;28;20464;-72
2023/12/05 02:38:26;;;;;;;33.22;23.80;;;4.20;99.90;;;;;;4973380;28;20471;-72
2023/12/05 02:41:02;;;;;;;29.40;22.02;;;4.20;99.90;;;;;;4971089;28;20066;-72
2023/12/05 02:43:44;;;;;;;33.17;23.48;;;4.20;99.90;;;;;;4972393;28;20435;-72
2023/12/05 02:46:11;;;;;;;30.42;23.40;;;4.30;99.90;;;;;;4972939;28;20065;-71
2023/12/05 02:48:38;;;;;;;34.67;24.45;;;4.30;99.90;;;;;;4973249;28;20110;-72
2023/12/05 02:51:04;;;;;;;32.90;23.83;;;4.20;99.90;;;;;;4970470;28;20030;-72
2023/12/05 02:53:29;;;;;;;34.80;25.35;;;4.10;99.90;;;;;;4973132;28;20035;-72
2023/12/05 02:55:55;;;;;;;33.65;24.05;;;4.10;99.90;;;;;;4973165;28;20478;-72
2023/12/05 02:58:21;;;;;;;34.83;24.85;;;4.10;99.90;;;;;;4971622;28;20035;-72
2023/12/05 03:00:46;;;;;;;31.35;23.63;;;4.10;99.90;;;;;;4971761;28;20039;-72
2023/12/05 03:03:12;;;;;;;33.00;22.75;;;4.10;99.90;;;;;;4971603;28;20042;-73
2023/12/05 03:05:37;;;;;;;31.52;23.40;;;4.20;99.90;;;;;;4972162;28;20368;-72
2023/12/05 03:08:03;;;;;;;31.10;22.75;;;4.10;99.90;;;;;;4973017;28;20394;-72
2023/12/05 03:10:29;;;;;;;32.60;23.08;;;4.10;99.90;;;;;;4971779;28;20368;-72
2023/12/05 03:12:54;;;;;;;32.83;24.60;;;4.20;99.90;;;;;;4972493;28;20045;-71
2023/12/05 03:15:20;;;;;;;30.92;22.92;;;4.30;99.90;;;;;;4973210;28;20093;-72
2023/12/05 03:17:46;;;;;;;32.03;22.55;;;4.30;99.90;;;;;;4971400;28;20483;-72
2023/12/05 03:20:11;;;;;;;39.15;25.30;;;4.20;99.90;;;;;;4973105;28;20035;-72
2023/12/05 03:22:37;;;;;;;34.85;24.52;;;4.10;99.90;;;;;;4974374;28;20050;-72
2023/12/05 03:25:03;;;;;;;34.83;24.45;;;4.10;99.90;;;;;;4973888;28;20027;-72
2023/12/05 03:27:29;;;;;;;34.60;24.15;;;4.00;99.90;;;;;;4976258;28;20062;-73
2023/12/05 03:29:55;;;;;;;32.67;24.23;;;4.00;99.90;;;;;;4974985;28;20034;-73
2023/12/05 03:32:20;;;;;;;33.92;24.30;;;4.10;99.90;;;;;;4974948;28;20031;-72
2023/12/05 03:34:49;;;;;;;35.65;24.80;;;4.10;99.90;;;;;;4976285;28;20538;-73
2023/12/05 03:37:15;;;;;;;31.98;22.88;;;4.10;99.90;;;;;;4975411;28;20494;-72
2023/12/05 03:39:40;;;;;;;32.08;23.25;;;4.20;99.90;;;;;;4974953;28;20531;-71
2023/12/05 03:42:06;;;;;;;34.75;24.65;;;4.10;99.90;;;;;;4975731;28;20522;-71
2023/12/05 03:44:31;;;;;;;31.17;22.92;;;4.20;99.90;;;;;;4974167;28;20081;-71
2023/12/05 03:46:57;;;;;;;32.35;23.58;;;4.20;99.90;;;;;;4976188;28;20395;-72
2023/12/05 03:49:23;;;;;;;32.58;23.38;;;4.20;99.90;;;;;;4975934;28;20034;-72
2023/12/05 03:51:49;;;;;;;31.83;23.70;;;4.20;99.90;;;;;;4975095;28;20489;-71
2023/12/05 03:54:15;;;;;;;32.75;23.50;;;4.10;99.90;;;;;;4974498;28;20170;-71
2023/12/05 03:56:41;;;;;;;33.50;22.90;;;4.10;99.90;;;;;;4975381;28;20035;-71
2023/12/05 03:59:06;;;;;;;28.10;21.20;;;4.20;99.90;;;;;;4975697;28;20114;-71
2023/12/05 04:01:32;;;;;;;30.42;21.10;;;4.20;99.90;;;;;;4975848;28;20502;-71
2023/12/05 04:03:58;;;;;;;31.17;21.70;;;4.20;99.90;;;;;;4958547;28;20534;-71
2023/12/05 04:06:24;;;;;;;31.75;22.70;;;4.30;99.90;;;;;;4975470;28;20368;-72
2023/12/05 04:08:50;;;;;;;31.85;23.02;;;4.20;99.90;;;;;;4974362;28;20041;-70
2023/12/05 04:11:16;;;;;;;34.47;23.92;;;4.20;99.90;;;;;;4975576;28;20170;-71
2023/12/05 04:13:42;;;;;;;34.35;24.25;;;4.10;99.90;;;;;;4975513;28;20515;-70
2023/12/05 04:16:08;;;;;;;34.40;23.23;;;4.10;99.90;;;;;;4974122;28;20170;-70
2023/12/05 04:18:34;;;;;;;33.45;23.85;;;4.10;99.90;;;;;;4974439;28;20042;-70
2023/12/05 04:20:59;;;;;;;33.75;24.00;;;4.10;99.90;;;;;;4975080;28;20035;-70
2023/12/05 04:23:25;;;;;;;30.75;22.42;;;4.10;99.90;;;;;;4975124;28;20490;-70
2023/12/05 04:25:51;;;;;;;33.72;23.77;;;4.10;99.90;;;;;;4974152;28;20598;-70
2023/12/05 04:28:16;;;;;;;30.08;22.10;;;4.20;99.90;;;;;;4975064;28;20467;-70
2023/12/05 04:30:42;;;;;;;31.95;22.15;;;4.20;99.90;;;;;;4974034;28;20493;-70
2023/12/05 04:33:08;;;;;;;35.05;24.52;;;4.20;99.90;;;;;;4975069;28;20554;-70
2023/12/05 04:35:35;;;;;;;33.47;22.92;;;4.10;99.90;;;;;;4974821;28;20031;-71
2023/12/05 04:38:00;;;;;;;33.15;23.23;;;4.10;99.90;;;;;;4975052;28;20035;-70
2023/12/05 04:40:26;;;;;;;31.13;22.45;;;4.10;99.90;;;;;;4975162;28;20534;-71
2023/12/05 04:42:52;;;;;;;33.03;23.42;;;4.10;99.90;;;;;;4974278;28;20097;-70
2023/12/05 04:45:17;;;;;;;35.53;24.40;;;4.10;99.90;;;;;;4974527;28;20047;-70
2023/12/05 04:47:44;;;;;;;33.70;22.20;;;4.10;99.90;;;;;;4975130;28;20031;-70
2023/12/05 04:50:10;;;;;;;33.05;23.75;;;4.10;99.90;;;;;;4972347;28;20026;-70
2023/12/05 04:52:36;;;;;;;34.95;22.58;;;4.20;99.90;;;;;;4974657;28;20034;-71
2023/12/05 04:55:01;;;;;;;36.90;25.70;;;4.10;99.90;;;;;;4974689;28;20483;-70
2023/12/05 04:57:27;;;;;;;32.08;23.00;;;4.10;99.90;;;;;;4957583;28;20034;-70
2023/12/05 04:59:53;;;;;;;33.08;22.80;;;4.10;99.90;;;;;;4974425;28;20035;-70
2023/12/05 05:02:18;;;;;;;33.45;24.05;;;4.20;99.90;;;;;;4974292;28;20038;-70
2023/12/05 05:04:44;;;;;;;32.20;23.30;;;4.20;99.90;;;;;;4974715;28;20023;-70
2023/12/05 05:07:10;;;;;;;32.63;23.02;;;4.30;99.90;;;;;;4973235;28;20525;-70
2023/12/05 05:09:39;;;;;;;35.28;22.63;;;4.30;99.90;;;;;;4974389;28;20487;-70
2023/12/05 05:12:08;;;;;;;32.05;22.58;;;4.30;99.90;;;;;;4973183;28;20479;-70
2023/12/05 05:14:34;;;;;;;33.58;22.77;;;4.30;99.90;;;;;;4974169;28;20041;-70
2023/12/05 05:17:00;;;;;;;33.70;23.05;;;4.20;99.90;;;;;;4972917;28;20043;-71
2023/12/05 05:19:25;;;;;;;31.05;22.45;;;4.10;99.90;;;;;;4974307;28;20038;-70
2023/12/05 05:21:51;;;;;;;31.67;23.15;;;4.10;99.90;;;;;;4974356;28;20038;-69
2023/12/05 05:24:17;;;;;;;30.48;21.85;;;4.10;99.90;;;;;;4974655;28;20395;-70
2023/12/05 05:26:42;;;;;;;30.88;21.77;;;4.10;99.90;;;;;;4973972;28;20031;-69
2023/12/05 05:29:08;;;;;;;27.35;20.85;;;4.20;99.90;;;;;;4974222;28;20039;-69
2023/12/05 05:31:34;;;;;;;30.40;20.85;;;4.20;99.90;;;;;;4972345;28;20055;-70
2023/12/05 05:33:59;;;;;;;29.45;21.55;;;4.40;99.90;;;;;;4974027;28;20039;-70
2023/12/05 05:36:25;;;;;;;29.58;20.88;;;4.40;99.90;;;;;;4972082;28;20477;-69
2023/12/05 05:38:50;;;;;;;28.70;20.52;;;4.30;99.90;;;;;;4972735;28;20066;-69
2023/12/05 05:41:16;;;;;;;27.40;20.30;;;4.30;99.90;;;;;;4973840;28;20494;-69
2023/12/05 05:43:42;;;;;;;28.60;20.80;;;4.30;99.90;;;;;;4970951;28;20073;-71
2023/12/05 05:46:07;;;;;;;30.65;21.75;;;4.30;99.90;;;;;;4973971;28;20075;-70
2023/12/05 05:48:33;;;;;;;28.27;21.08;;;4.30;99.90;;;;;;4973947;28;20030;-70
2023/12/05 05:50:59;;;;;;;30.83;22.38;;;4.30;99.90;;;;;;4973441;28;20546;-71
2023/12/05 05:53:24;;;;;;;30.45;20.98;;;4.10;99.90;;;;;;4971179;28;20031;-70
2023/12/05 05:55:50;;;;;;;32.58;23.50;;;4.10;99.90;;;;;;4938614;28;20369;-70
2023/12/05 05:58:16;;;;;;;30.25;22.27;;;4.00;99.90;;;;;;4973929;28;20155;-70
2023/12/05 06:00:41;;;;;;;33.17;23.25;;;4.00;99.90;;;;;;4973587;28;20037;-70
2023/12/05 06:03:08;;;;;;;29.60;20.77;;;3.90;99.90;;;;;;4973744;28;20038;-70
2023/12/05 06:05:34;;;;;;;31.88;22.38;;;3.90;99.90;;;;;;4973241;28;20042;-70
2023/12/05 06:08:00;;;;;;;31.08;22.42;;;4.10;99.90;;;;;;4971945;28;20023;-70
2023/12/05 06:10:27;;;;;;;32.60;23.00;;;4.10;99.90;;;;;;4973142;28;20034;-70
2023/12/05 06:12:52;;;;;;;33.67;23.10;;;4.00;99.90;;;;;;4955824;28;20069;-71
2023/12/05 06:15:18;;;;;;;31.65;22.30;;;4.00;99.90;;;;;;4973498;28;20031;-70
2023/12/05 06:17:44;;;;;;;33.03;21.27;;;4.00;99.90;;;;;;4973396;28;20158;-71
2023/12/05 06:20:10;;;;;;;31.98;21.85;;;4.10;99.90;;;;;;4973209;28;20464;-70
2023/12/05 06:22:36;;;;;;;27.38;20.40;;;4.10;99.90;;;;;;4973826;28;20117;-71
2023/12/05 06:25:01;;;;;;;30.38;21.42;;;4.20;99.90;;;;;;4973394;28;20455;-74
2023/12/05 06:27:27;;;;;;;29.48;21.25;;;4.30;99.90;;;;;;4974298;28;20427;-71
2023/12/05 06:29:53;;;;;;;28.05;19.75;;;4.50;99.90;;;;;;4974142;28;20500;-71
2023/12/05 06:32:18;;;;;;;24.23;17.20;;;4.50;99.90;;;;;;4972268;28;20073;-71
2023/12/05 06:34:44;;;;;;;25.80;18.33;;;4.50;99.90;;;;;;4973974;28;20420;-71
2023/12/05 06:37:10;;;;;;;22.02;17.35;;;4.60;99.90;;;;;;4973812;28;20590;-71
2023/12/05 06:39:35;;;;;;;24.48;18.45;;;4.70;99.90;;;;;;4973610;28;20468;-71
2023/12/05 06:42:01;;;;;;;23.13;16.27;;;4.70;99.90;;;;;;4972216;28;20039;-72
2023/12/05 06:44:27;;;;;;;25.33;18.80;;;4.60;99.90;;;;;;4973578;28;20046;-72
2023/12/05 06:46:52;;;;;;;24.77;18.15;;;4.70;99.90;;;;;;4971557;28;20504;-71
2023/12/05 06:49:18;;;;;;;22.52;17.05;;;4.60;99.90;;;;;;4956379;28;20403;-71
2023/12/05 06:51:44;;;;;;;25.00;18.13;;;4.70;99.90;;;;;;4973963;28;20463;-71
2023/12/05 06:54:09;;;;;;;22.63;17.75;;;4.80;99.90;;;;;;4972321;28;20659;-71
2023/12/05 06:56:35;;;;;;;22.55;17.23;;;4.70;99.90;;;;;;4974739;28;20105;-71
2023/12/05 06:59:03;;;;;;;24.67;18.73;;;4.70;99.90;;;;;;4977931;28;20042;-71
2023/12/05 07:01:29;;;;;;;24.15;18.48;;;4.70;99.90;;;;;;4977675;28;20055;-72
2023/12/05 07:03:55;;;;;;;23.30;16.65;;;4.70;99.90;;;;;;4977483;28;20043;-73
2023/12/05 07:06:21;;;;;;;17.75;13.65;;;4.70;99.90;;;;;;4977288;28;20030;-72
2023/12/05 07:08:46;;;;;;;21.35;16.50;;;4.70;99.90;;;;;;4977785;28;20468;-72
2023/12/05 07:11:12;;;;;;;26.85;18.55;;;4.90;99.90;;;;;;4976618;28;20031;-72
2023/12/05 07:13:38;;;;;;;22.95;18.25;;;5.00;99.90;;;;;;4976948;28;20049;-72
2023/12/05 07:16:04;;;;;;;27.63;20.23;;;4.80;99.90;;;;;;4976083;28;20027;-72
2023/12/05 07:18:29;;;;;;;24.33;18.25;;;4.60;99.90;;;;;;4978132;28;20110;-72
2023/12/05 07:20:55;;;;;;;32.08;22.23;;;4.40;99.90;;;;;;4977236;28;20061;-71
2023/12/05 07:23:20;;;;;;;27.88;20.13;;;4.50;99.90;;;;;;4977689;28;20533;-72
2023/12/05 07:25:46;;;;;;;28.10;20.30;;;4.50;99.90;;;;;;4977241;28;20092;-71
2023/12/05 07:28:12;;;;;;;28.40;20.52;;;4.60;99.90;;;;;;4976488;28;20055;-72
2023/12/05 07:30:38;;;;;;;28.52;19.80;;;4.60;99.90;;;;;;4977773;28;20038;-71
2023/12/05 07:33:03;;;;;;;29.40;20.05;;;4.60;99.90;;;;;;4976179;28;20035;-72
2023/12/05 07:35:29;;;;;;;31.10;22.50;;;4.50;99.90;;;;;;4976901;28;20035;-71
2023/12/05 07:37:55;;;;;;;32.30;23.33;;;4.40;99.90;;;;;;4977171;28;20043;-72
2023/12/05 07:40:20;;;;;;;34.72;24.33;;;4.30;99.90;;;;;;4977289;28;20463;-73
2023/12/05 07:42:46;;;;;;;32.60;23.60;;;4.40;99.90;;;;;;4976864;28;20039;-72
2023/12/05 07:45:12;;;;;;;33.13;24.23;;;4.40;99.90;;;;;;4976879;28;20431;-73
2023/12/05 07:47:37;;;;;;;34.33;24.77;;;4.40;99.90;;;;;;4977023;28;20026;-72
2023/12/05 07:50:03;;;;;;;34.15;24.83;;;4.30;99.90;;;;;;4975986;28;20463;-72
2023/12/05 07:52:29;;;;;;;34.92;25.10;;;4.20;99.90;;;;;;4976434;28;20424;-72
2023/12/05 07:54:55;;;;;;;34.05;24.75;;;4.10;99.90;;;;;;4976878;28;20070;-72
2023/12/05 07:57:22;;;;;;;34.50;24.98;;;4.10;99.90;;;;;;4976618;28;20033;-72
2023/12/05 07:59:51;;;;;;;33.45;21.88;;;4.10;99.90;;;;;;4975629;28;20066;-72
2023/12/05 08:02:17;;;;;;;39.33;26.48;;;4.10;99.90;;;;;;4976544;28;20045;-71
2023/12/05 08:04:43;;;;;;;28.17;20.67;;;4.20;99.90;;;;;;4976860;28;20390;-72
2023/12/05 08:07:08;;;;;;;35.42;24.95;;;4.30;99.90;;;;;;4975529;28;20118;-71
2023/12/05 08:09:34;;;;;;;33.47;22.92;;;4.50;99.90;;;;;;4975405;28;20039;-71
2023/12/05 08:12:00;;;;;;;22.63;16.92;;;4.60;99.90;;;;;;4976876;28;20062;-71
2023/12/05 08:14:25;;;;;;;28.52;21.48;;;4.60;99.90;;;;;;4976556;28;20475;-72
2023/12/05 08:16:51;;;;;;;31.17;21.63;;;4.90;99.90;;;;;;4976551;28;20031;-72
2023/12/05 08:19:17;;;;;;;28.15;20.30;;;4.90;99.90;;;;;;4976576;28;20110;-71
2023/12/05 08:21:43;;;;;;;29.13;21.10;;;4.70;99.90;;;;;;4976145;28;20045;-71
2023/12/05 08:24:09;;;;;;;29.65;21.38;;;4.80;99.90;;;;;;4976471;28;20042;-72
2023/12/05 08:26:34;;;;;;;29.15;20.55;;;4.80;99.90;;;;;;4976850;28;20030;-71
2023/12/05 08:29:01;;;;;;;33.45;23.80;;;4.70;99.90;;;;;;4976155;28;20046;-72
2023/12/05 08:31:26;;;;;;;32.22;22.25;;;4.60;99.90;;;;;;4976098;28;20035;-73
2023/12/05 08:33:52;;;;;;;33.78;24.02;;;4.60;99.90;;;;;;4974908;28;20073;-72
2023/12/05 08:36:18;;;;;;;30.40;22.55;;;4.60;99.90;;;;;;4974646;28;20037;-71
2023/12/05 08:38:44;;;;;;;28.95;21.25;;;4.70;99.90;;;;;;4975042;28;20031;-72
2023/12/05 08:41:19;;;;;;;31.20;22.15;;;4.70;99.90;;;;;;4975907;28;20082;-72
2023/12/05 08:43:46;;;;;;;27.10;20.88;;;4.80;99.90;;;;;;4994241;28;20097;-74
2023/12/05 08:46:12;;;;;;;27.88;20.35;;;5.00;99.90;;;;;;4995159;28;20402;-72
2023/12/05 08:48:38;;;;;;;24.10;17.83;;;5.00;99.90;;;;;;4995786;28;20034;-72
2023/12/05 08:51:03;;;;;;;26.35;20.20;;;5.10;99.90;;;;;;4995132;28;20038;-72
2023/12/05 08:53:29;;;;;;;26.08;19.10;;;5.10;99.90;;;;;;4981368;28;20038;-72
2023/12/05 08:55:55;;;;;;;27.02;19.40;;;5.20;99.90;;;;;;4976225;28;20519;-73
2023/12/05 08:58:20;;;;;;;27.35;19.90;;;5.10;99.90;;;;;;4975839;28;20472;-75
2023/12/05 09:00:46;;;;;;;23.35;16.85;;;4.80;99.90;;;;;;4975748;28;20039;-74
2023/12/05 09:03:12;;;;;;;25.92;19.85;;;4.70;99.90;;;;;;4958269;28;20039;-73
2023/12/05 09:05:37;;;;;;;26.50;20.13;;;4.70;99.90;;;;;;4975833;28;20030;-73
2023/12/05 09:08:04;;;;;;;29.02;20.52;;;4.70;99.90;;;;;;4975789;28;20031;-72
2023/12/05 09:10:30;;;;;;;28.17;20.38;;;4.60;99.90;;;;;;4974377;28;20066;-71
2023/12/05 09:12:55;;;;;;;27.40;19.63;;;4.60;99.90;;;;;;4974743;28;20039;-72
2023/12/05 09:15:21;;;;;;;24.42;18.33;;;4.70;99.90;;;;;;4975618;28;20082;-73
2023/12/05 09:17:47;;;;;;;24.73;18.90;;;4.90;99.90;;;;;;4975506;28;20031;-72
2023/12/05 09:20:12;;;;;;;20.15;15.27;;;5.00;99.90;;;;;;4974268;28;20042;-72
2023/12/05 09:22:38;;;;;;;22.42;17.00;;;5.00;99.90;;;;;;4975437;28;20039;-72
2023/12/05 09:25:06;;;;;;;24.55;18.05;;;5.10;99.90;;;;;;4942158;28;20391;-72
2023/12/05 09:27:31;;;;;;;26.80;20.52;;;5.00;99.90;;;;;;4975596;28;20047;-72
2023/12/05 09:29:57;;;;;;;24.95;20.08;;;5.10;99.90;;;;;;4975266;28;20037;-72
2023/12/05 09:32:23;;;;;;;26.08;18.88;;;5.10;99.90;;;;;;4974070;28;20485;-72
2023/12/05 09:34:48;;;;;;;25.40;20.02;;;5.10;99.90;;;;;;4957883;28;20058;-73
2023/12/05 09:37:14;;;;;;;20.48;15.40;;;5.10;99.90;;;;;;4975431;28;20030;-73
2023/12/05 09:39:40;;;;;;;26.67;19.92;;;5.20;99.90;;;;;;4973857;28;20038;-72
2023/12/05 09:42:10;;;;;;;23.83;19.00;;;5.10;99.90;;;;;;4973655;28;20027;-73
2023/12/05 09:44:38;;;;;;;24.63;19.35;;;5.00;99.90;;;;;;4973576;28;20059;-72
2023/12/05 09:47:05;;;;;;;25.60;19.05;;;4.90;99.90;;;;;;4974915;28;20026;-72
2023/12/05 09:49:30;;;;;;;27.73;20.23;;;4.80;99.90;;;;;;4974756;28;20089;-73
2023/12/05 09:51:58;;;;;;;27.25;18.70;;;4.70;99.90;;;;;;4973858;28;20034;-73
2023/12/05 09:54:25;;;;;;;28.73;20.30;;;4.70;99.90;;;;;;4973656;28;20042;-73
2023/12/05 09:56:57;;;;;;;16.35;12.57;;;4.80;99.90;;;;;;4974672;28;20113;-73
2023/12/05 09:59:23;;;;;;;24.40;17.63;;;5.10;99.90;;;;;;4975077;28;20046;-72
2023/12/05 10:01:52;;;;;;;26.38;18.80;;;5.20;99.90;;;;;;4973621;28;20410;-72
2023/12/05 10:04:22;;;;;;;26.90;18.90;;;5.10;99.90;;;;;;4974367;28;20043;-73
2023/12/05 10:06:48;;;;;;;23.33;18.42;;;5.00;99.90;;;;;;4974850;28;20037;-72
2023/12/05 10:09:15;;;;;;;23.98;16.90;;;4.90;99.90;;;;;;4974589;28;20442;-73
2023/12/05 10:11:41;;;;;;;23.15;16.73;;;4.90;99.90;;;;;;4973715;28;20431;-73
2023/12/05 10:14:07;;;;;;;21.33;16.63;;;5.10;99.90;;;;;;4956810;28;20035;-73
2023/12/05 10:16:33;;;;;;;25.27;15.75;;;5.30;99.90;;;;;;4973865;28;20027;-72
2023/12/05 10:18:59;;;;;;;21.48;16.42;;;5.40;99.90;;;;;;4974608;28;20031;-73
2023/12/05 10:21:25;;;;;;;21.98;17.42;;;5.60;99.90;;;;;;4974414;28;20054;-72
2023/12/05 10:23:51;;;;;;;22.48;16.95;;;5.70;99.90;;;;;;4974446;28;20031;-73
2023/12/05 10:26:17;;;;;;;18.63;14.82;;;5.70;99.90;;;;;;4974612;28;20038;-73
2023/12/05 10:28:54;;;;;;;19.85;13.95;;;5.60;99.90;;;;;;4973479;28;20065;-72
2023/12/05 10:31:21;;;;;;;27.08;19.30;;;5.60;99.90;;;;;;4972946;28;20039;-73
2023/12/05 10:33:48;;;;;;;23.25;16.70;;;5.60;99.90;;;;;;4974134;28;20023;-73
2023/12/05 10:36:14;;;;;;;23.05;16.23;;;5.40;99.90;;;;;;4956350;28;20113;-73
2023/12/05 10:38:46;;;;;;;23.08;17.40;;;5.40;99.90;;;;;;4974158;28;20114;-72
2023/12/05 10:41:12;;;;;;;23.75;17.77;;;5.30;99.90;;;;;;4972301;28;20430;-73
2023/12/05 10:43:46;;;;;;;18.92;14.88;;;5.30;99.90;;;;;;4973692;28;20066;-72
2023/12/05 10:46:12;;;;;;;25.48;18.98;;;5.20;99.90;;;;;;4974177;28;20105;-72
2023/12/05 10:48:38;;;;;;;27.63;17.33;;;5.30;99.90;;;;;;4974318;28;20118;-72
2023/12/05 10:51:04;;;;;;;27.70;20.00;;;5.40;99.90;;;;;;4973101;28;20066;-72
2023/12/05 10:53:37;;;;;;;26.75;19.88;;;5.40;99.90;;;;;;4974163;28;20030;-72
2023/12/05 10:56:16;;;;;;;28.45;20.15;;;5.40;99.90;;;;;;4973998;28;20031;-72
2023/12/05 10:58:42;;;;;;;28.17;21.10;;;5.40;99.90;;;;;;4973980;28;20054;-72
2023/12/05 11:01:13;;;;;;;28.50;20.67;;;5.20;99.90;;;;;;4973132;28;20832;-73
2023/12/05 11:03:40;;;;;;;25.00;19.05;;;5.30;99.90;;;;;;4972953;28;20468;-72
2023/12/05 11:06:07;;;;;;;29.05;21.23;;;5.20;99.90;;;;;;4972704;28;20074;-72
2023/12/05 11:08:35;;;;;;;28.23;20.85;;;5.30;99.90;;;;;;4973024;28;20035;-72
2023/12/05 11:11:05;;;;;;;278.52;48.80;;;5.10;99.90;;;;;;4972878;28;20027;-72
2023/12/05 11:13:33;;;;;;;40.58;24.17;;;5.10;99.90;;;;;;4972377;28;20041;-72
2023/12/05 11:16:12;;;;;;;27.83;20.30;;;5.30;99.90;;;;;;4973717;28;20023;-73
2023/12/05 11:18:43;;;;;;;33.67;22.13;;;5.40;99.90;;;;;;4974022;28;20058;-72
2023/12/05 11:21:11;;;;;;;36.38;20.52;;;5.50;99.90;;;;;;4972852;28;20031;-72
2023/12/05 11:23:59;;;;;;;33.22;21.50;;;5.40;99.90;;;;;;4973741;28;20117;-73
2023/12/05 11:27:09;;;;;;;47.03;20.98;;;5.30;99.90;;;;;;4972667;28;20487;-73
2023/12/05 11:30:08;;;;;;;30.95;21.05;;;5.40;99.90;;;;;;4973926;28;20109;-73
2023/12/05 11:33:01;;;;;;;30.52;21.10;;;5.50;99.90;;;;;;4956161;28;20368;-73
2023/12/05 11:36:03;;;;;;;63.80;22.25;;;5.40;99.90;;;;;;4963842;28;20051;-72
2023/12/05 11:38:30;;;;;;;62.65;21.33;;;5.30;99.90;;;;;;4971992;28;20027;-72
2023/12/05 11:41:19;;;;;;;31.88;20.92;;;5.50;99.90;;;;;;4973631;28;20050;-72
2023/12/05 11:44:13;;;;;;;27.13;19.02;;;5.60;99.90;;;;;;4974613;28;20084;-71
2023/12/05 11:46:47;;;;;;;27.65;18.77;;;5.40;99.90;;;;;;4977159;28;20475;-72
2023/12/05 11:50:01;;;;;;;31.00;17.70;;;5.20;99.90;;;;;;4977274;28;20035;-72
2023/12/05 11:52:28;;;;;;;23.35;17.40;;;5.20;99.90;;;;;;4955889;28;20035;-72
2023/12/05 11:54:54;;;;;;;20.33;15.65;;;5.20;99.90;;;;;;4976196;28;20027;-74
2023/12/05 11:57:23;;;;;;;20.90;14.68;;;5.20;99.90;;;;;;4977279;28;20026;-72
2023/12/05 11:59:52;;;;;;;20.80;15.25;;;5.20;99.90;;;;;;4976975;28;20030;-73
2023/12/05 12:02:29;;;;;;;24.67;16.00;;;5.20;99.90;;;;;;4977108;28;20463;-72
2023/12/05 12:05:05;;;;;;;40.80;16.25;;;5.20;99.90;;;;;;4975954;28;20035;-72
2023/12/05 12:07:31;;;;;;;23.67;16.10;;;5.30;99.90;;;;;;4977123;28;20023;-72
2023/12/05 12:09:57;;;;;;;40.60;16.40;;;5.40;99.90;;;;;;4976372;28;20039;-72
2023/12/05 12:12:24;;;;;;;32.55;17.70;;;5.50;99.90;;;;;;4976358;28;20041;-72
2023/12/05 12:14:49;;;;;;;31.00;20.40;;;5.70;99.90;;;;;;4976914;28;20077;-72
2023/12/05 12:17:15;;;;;;;35.08;20.23;;;5.70;99.90;;;;;;4976726;28;20039;-71
2023/12/05 12:19:42;;;;;;;29.38;20.92;;;5.70;99.90;;;;;;4975534;28;20031;-71
2023/12/05 12:22:09;;;;;;;35.47;19.63;;;5.80;99.90;;;;;;4976217;28;20051;-71
2023/12/05 12:24:36;;;;;;;33.63;21.83;;;5.90;99.90;;;;;;4976368;28;20049;-72
2023/12/05 12:27:04;;;;;;;34.92;21.65;;;5.90;99.90;;;;;;4976260;28;20573;-71
2023/12/05 12:29:30;;;;;;;34.50;22.95;;;6.00;99.90;;;;;;4975007;28;20423;-72
2023/12/05 12:32:10;;;;;;;37.33;22.70;;;6.00;99.90;;;;;;4975210;28;20053;-71
2023/12/05 12:34:37;;;;;;;36.80;21.20;;;6.00;99.90;;;;;;4976340;28;20394;-71
2023/12/05 12:37:05;;;;;;;38.67;24.88;;;6.00;99.90;;;;;;4975461;28;20077;-72